Impacts METAR Board
IDs:

KPGD - Punta Gorda/Charlott, FL, US

Updated at: 2200 UTC 30 Jun 2022
Potential Impact None Slight Moderate High
Time 30/10Z 30/11Z 30/12Z 30/13Z 30/14Z 30/15Z 30/16Z 30/17Z 30/18Z 30/19Z 30/20Z 30/21Z 30/22Z
Temp76 75 77 81 85 88 89 90 91 92 92 92 77
Dewpt74 74 74 75 75 74 74 72 72 72 71 73 72
Altim30.12 30.12 30.13 30.15 30.15 30.15 30.14 30.13 30.11 30.08 30.06 30.05 30.08
VIS10 10 10 10 10 10 10 10 10 10 10 10 0.5
CIG-- -- -- -- -- -- 33 -- -- -- -- -- 24
CoverCLRCLRCLRCLRCLRCLRBKNFEWCLRFEWFEWCLROVC
FltCatVFRVFRVFRVFRVFRVFRVFRVFRVFRVFRVFRVFRLIFR
WX----------------------VCTS+TSRA
WDir0100501005002001500250280230
WSpd0 4 3 3 4 0 4 3 4 0 4 9 12
WGst-- -- -- -- -- -- -- -- -- -- -- -- 24
Raw hourly METARs
KPGD 300953Z 00000KT 10SM CLR 24/23 A3012 RMK AO2 SLP197 T02440233
KPGD 301053Z 10004KT 10SM CLR 24/23 A3012 RMK AO2 SLP198 T02390233
KPGD 301153Z 05003KT 10SM CLR 25/23 A3013 RMK AO2 SLP203 T02500233 10256 20239 53006
KPGD 301253Z 10003KT 10SM CLR 27/24 A3015 RMK AO2 SLP208 T02720239
KPGD 301353Z 05004KT 10SM CLR 29/24 A3015 RMK AO2 SLP208 T02940239
KPGD 301453Z 00000KT 10SM CLR 31/23 A3015 RMK AO2 SLP208 T03110233 50005
KPGD 301553Z 02004KT 10SM BKN033 BKN090 32/23 A3014 RMK AO2 SLP206 T03170233
KPGD 301653Z VRB03KT 10SM FEW043 32/22 A3013 RMK AO2 SLP201 T03220222
KPGD 301753Z 15004KT 10SM CLR 33/22 A3011 RMK AO2 LTG DSNT W SLP194 T03280222 10333 20250 58014
KPGD 301853Z 00000KT 10SM FEW055 33/22 A3008 RMK AO2 SLP186 T03330222
KPGD 301953Z 25004KT 10SM FEW055 33/22 A3006 RMK AO2 SLP177 T03330217
KPGD 302101Z 28009KT 10SM VCTS CLR 33/23 A3005 RMK AO2 LTG DSNT SE AND S AND NW T03330228
KPGD 302201Z 23012G24KT 200V270 1/2SM +TSRA BKN024 BKN060 OVC070 25/22 A3008 RMK AO2 WSHFT 2147 LTG DSNT ALQDS P0037 T02500222



Page loaded:  22:18 UTC  |   03:18 PM Pacific  |   04:18 PM Mountain  |   05:18 PM Central  |   06:18 PM Eastern

 

ADVISORIES

FORECASTS

FORECASTS

OBSERVATIONS

USER TOOLS

ABOUT US